sensor_id;sensor_type;location;lat;lon;timestamp;pressure;altitude;pressure_sealevel;temperature;humidity
9277;BME280;4676;42.678;23.244;2023-04-27T00:00:55;93802.88;;;7.40;68.25
9277;BME280;4676;42.678;23.244;2023-04-27T00:03:21;93807.88;;;7.41;68.94
9277;BME280;4676;42.678;23.244;2023-04-27T00:05:48;93808.13;;;7.34;68.77
9277;BME280;4676;42.678;23.244;2023-04-27T00:08:15;93794.06;;;7.27;69.53
9277;BME280;4676;42.678;23.244;2023-04-27T00:10:41;93813.25;;;7.31;69.77
9277;BME280;4676;42.678;23.244;2023-04-27T00:13:09;93813.38;;;7.28;68.63
9277;BME280;4676;42.678;23.244;2023-04-27T00:15:37;93823.38;;;7.29;69.28
9277;BME280;4676;42.678;23.244;2023-04-27T00:18:16;93815.09;;;7.26;68.74
9277;BME280;4676;42.678;23.244;2023-04-27T00:20:42;93822.84;;;7.20;69.11
9277;BME280;4676;42.678;23.244;2023-04-27T00:23:10;93799.81;;;7.04;70.01
9277;BME280;4676;42.678;23.244;2023-04-27T00:25:36;93810.41;;;7.15;70.03
9277;BME280;4676;42.678;23.244;2023-04-27T00:28:03;93829.66;;;7.18;68.82
9277;BME280;4676;42.678;23.244;2023-04-27T00:30:31;93817.72;;;7.23;69.18
9277;BME280;4676;42.678;23.244;2023-04-27T00:32:58;93814.34;;;7.24;72.02
9277;BME280;4676;42.678;23.244;2023-04-27T00:35:25;93827.75;;;7.24;70.45
9277;BME280;4676;42.678;23.244;2023-04-27T00:37:52;93814.34;;;7.24;68.89
9277;BME280;4676;42.678;23.244;2023-04-27T00:40:19;93813.16;;;7.08;69.27
9277;BME280;4676;42.678;23.244;2023-04-27T00:42:46;93815.09;;;6.99;70.43
9277;BME280;4676;42.678;23.244;2023-04-27T00:45:19;93788.72;;;6.83;70.44
9277;BME280;4676;42.678;23.244;2023-04-27T00:47:47;93814.72;;;6.84;70.65
9277;BME280;4676;42.678;23.244;2023-04-27T00:50:13;93813.19;;;6.80;69.90
9277;BME280;4676;42.678;23.244;2023-04-27T00:52:40;93815.91;;;6.72;70.50
9277;BME280;4676;42.678;23.244;2023-04-27T00:55:07;93795.53;;;6.53;70.23
9277;BME280;4676;42.678;23.244;2023-04-27T00:57:34;93809.56;;;6.61;71.04
9277;BME280;4676;42.678;23.244;2023-04-27T01:00:02;93811.34;;;6.57;73.04
9277;BME280;4676;42.678;23.244;2023-04-27T01:02:31;93818.09;;;6.57;72.21
9277;BME280;4676;42.678;23.244;2023-04-27T01:04:59;93817.34;;;6.53;72.47
9277;BME280;4676;42.678;23.244;2023-04-27T01:07:27;93821.44;;;6.57;73.64
9277;BME280;4676;42.678;23.244;2023-04-27T01:09:54;93814.75;;;6.54;72.68
9277;BME280;4676;42.678;23.244;2023-04-27T01:12:21;93817.47;;;6.48;72.84
9277;BME280;4676;42.678;23.244;2023-04-27T01:14:48;93820.03;;;6.47;73.17
9277;BME280;4676;42.678;23.244;2023-04-27T01:17:14;93831.28;;;6.35;73.90
9277;BME280;4676;42.678;23.244;2023-04-27T01:19:42;93827.84;;;6.38;72.89
9277;BME280;4676;42.678;23.244;2023-04-27T01:22:10;93813.75;;;6.32;72.73
9277;BME280;4676;42.678;23.244;2023-04-27T01:24:40;93823.53;;;6.41;73.92
9277;BME280;4676;42.678;23.244;2023-04-27T01:27:07;93832.88;;;6.38;74.03
9277;BME280;4676;42.678;23.244;2023-04-27T01:29:34;93824.47;;;6.39;74.14
9277;BME280;4676;42.678;23.244;2023-04-27T01:32:00;93834.66;;;6.34;72.28
9277;BME280;4676;42.678;23.244;2023-04-27T01:34:27;93835.22;;;6.44;74.69
9277;BME280;4676;42.678;23.244;2023-04-27T01:36:54;93842.69;;;6.47;74.80
9277;BME280;4676;42.678;23.244;2023-04-27T01:39:21;93822.06;;;6.34;73.79
9277;BME280;4676;42.678;23.244;2023-04-27T01:41:49;93820.38;;;6.35;72.24
9277;BME280;4676;42.678;23.244;2023-04-27T01:44:16;93842.00;;;6.42;73.79
9277;BME280;4676;42.678;23.244;2023-04-27T01:46:44;93837.91;;;6.38;74.97
9277;BME280;4676;42.678;23.244;2023-04-27T01:49:11;93842.75;;;6.44;73.97
9277;BME280;4676;42.678;23.244;2023-04-27T01:51:38;93840.19;;;6.47;74.29
9277;BME280;4676;42.678;23.244;2023-04-27T01:54:04;93845.38;;;6.41;72.99
9277;BME280;4676;42.678;23.244;2023-04-27T01:56:31;93840.25;;;6.44;72.67
9277;BME280;4676;42.678;23.244;2023-04-27T01:59:00;93839.25;;;6.49;73.65
9277;BME280;4676;42.678;23.244;2023-04-27T02:01:26;93837.47;;;6.53;73.05
9277;BME280;4676;42.678;23.244;2023-04-27T02:03:53;93836.53;;;6.57;72.98
9277;BME280;4676;42.678;23.244;2023-04-27T02:06:20;93841.72;;;6.51;72.51
9277;BME280;4676;42.678;23.244;2023-04-27T02:08:46;93842.31;;;6.61;72.29
9277;BME280;4676;42.678;23.244;2023-04-27T02:11:13;93841.50;;;6.59;72.69
9277;BME280;4676;42.678;23.244;2023-04-27T02:13:40;93839.91;;;6.56;72.21
9277;BME280;4676;42.678;23.244;2023-04-27T02:16:08;93842.59;;;6.50;71.79
9277;BME280;4676;42.678;23.244;2023-04-27T02:18:35;93840.75;;;6.57;73.20
9277;BME280;4676;42.678;23.244;2023-04-27T02:21:07;93820.94;;;6.44;70.40
9277;BME280;4676;42.678;23.244;2023-04-27T02:23:34;93844.00;;;6.60;71.22
9277;BME280;4676;42.678;23.244;2023-04-27T02:26:01;93849.78;;;6.62;71.38
9277;BME280;4676;42.678;23.244;2023-04-27T02:28:28;93854.75;;;6.65;70.32
9277;BME280;4676;42.678;23.244;2023-04-27T02:30:55;93843.06;;;6.63;70.01
9277;BME280;4676;42.678;23.244;2023-04-27T02:33:23;93844.75;;;6.62;69.88
9277;BME280;4676;42.678;23.244;2023-04-27T02:35:50;93853.94;;;6.65;69.17
9277;BME280;4676;42.678;23.244;2023-04-27T02:38:16;93849.69;;;6.65;67.95
9277;BME280;4676;42.678;23.244;2023-04-27T02:40:43;93854.53;;;6.73;72.02
9277;BME280;4676;42.678;23.244;2023-04-27T02:43:10;93858.81;;;6.69;69.09
9277;BME280;4676;42.678;23.244;2023-04-27T02:45:36;93852.19;;;6.67;68.49
9277;BME280;4676;42.678;23.244;2023-04-27T02:48:03;93858.34;;;6.57;69.55
9277;BME280;4676;42.678;23.244;2023-04-27T02:50:31;93860.91;;;6.55;70.58
9277;BME280;4676;42.678;23.244;2023-04-27T02:52:58;93860.06;;;6.54;68.31
9277;BME280;4676;42.678;23.244;2023-04-27T02:55:25;93862.53;;;6.58;70.06
9277;BME280;4676;42.678;23.244;2023-04-27T02:57:51;93854.16;;;6.57;68.93
9277;BME280;4676;42.678;23.244;2023-04-27T03:00:18;93867.72;;;6.51;68.75
9277;BME280;4676;42.678;23.244;2023-04-27T03:02:45;93874.38;;;6.54;68.20
9277;BME280;4676;42.678;23.244;2023-04-27T03:05:12;93873.75;;;6.46;68.62
9277;BME280;4676;42.678;23.244;2023-04-27T03:07:40;93864.72;;;6.39;71.17
9277;BME280;4676;42.678;23.244;2023-04-27T03:10:07;93848.28;;;6.27;69.63
9277;BME280;4676;42.678;23.244;2023-04-27T03:12:34;93875.72;;;6.36;69.10
9277;BME280;4676;42.678;23.244;2023-04-27T03:15:01;93880.00;;;6.33;70.50
9277;BME280;4676;42.678;23.244;2023-04-27T03:17:28;93878.25;;;6.35;70.82
9277;BME280;4676;42.678;23.244;2023-04-27T03:19:55;93872.28;;;6.39;70.44
9277;BME280;4676;42.678;23.244;2023-04-27T03:22:22;93878.28;;;6.33;70.07
9277;BME280;4676;42.678;23.244;2023-04-27T03:24:50;93876.41;;;6.41;69.76
9277;BME280;4676;42.678;23.244;2023-04-27T03:27:16;93877.53;;;6.31;69.18
9277;BME280;4676;42.678;23.244;2023-04-27T03:29:43;93880.81;;;6.33;69.16
9277;BME280;4676;42.678;23.244;2023-04-27T03:32:10;93891.03;;;6.29;68.53
9277;BME280;4676;42.678;23.244;2023-04-27T03:34:36;93893.53;;;6.29;68.34
9277;BME280;4676;42.678;23.244;2023-04-27T03:37:03;93889.53;;;6.22;68.84
9277;BME280;4676;42.678;23.244;2023-04-27T03:39:30;93891.59;;;6.08;68.68
9277;BME280;4676;42.678;23.244;2023-04-27T03:41:58;93885.72;;;6.07;70.04
9277;BME280;4676;42.678;23.244;2023-04-27T03:44:26;93890.00;;;6.05;69.87
9277;BME280;4676;42.678;23.244;2023-04-27T03:46:53;93898.41;;;6.02;68.99
9277;BME280;4676;42.678;23.244;2023-04-27T03:49:20;93901.00;;;6.01;68.92
9277;BME280;4676;42.678;23.244;2023-04-27T03:51:47;93895.28;;;5.94;69.04
9277;BME280;4676;42.678;23.244;2023-04-27T03:54:13;93899.34;;;6.00;69.23
9277;BME280;4676;42.678;23.244;2023-04-27T07:00:22;107567.81;;;23.07;100.00
9277;BME280;4676;42.678;23.244;2023-04-27T08:01:39;93984.66;;;10.20;nan
9277;BME280;4676;42.678;23.244;2023-04-27T08:04:06;93985.69;;;10.36;nan
9277;BME280;4676;42.678;23.244;2023-04-27T08:06:33;93986.75;;;10.51;nan
9277;BME280;4676;42.678;23.244;2023-04-27T08:09:00;93976.09;;;10.43;nan
9277;BME280;4676;42.678;23.244;2023-04-27T08:11:28;93983.97;;;10.57;nan
9277;BME280;4676;42.678;23.244;2023-04-27T08:13:55;93970.28;;;10.61;nan
9277;BME280;4676;42.678;23.244;2023-04-27T08:16:23;93978.91;;;10.57;nan
9277;BME280;4676;42.678;23.244;2023-04-27T08:18:50;93943.50;;;10.35;nan
9277;BME280;4676;42.678;23.244;2023-04-27T08:21:16;93992.28;;;10.99;nan
9277;BME280;4676;42.678;23.244;2023-04-27T08:23:43;93979.50;;;10.82;nan
9277;BME280;4676;42.678;23.244;2023-04-27T08:26:13;93972.66;;;10.84;nan
9277;BME280;4676;42.678;23.244;2023-04-27T08:28:39;93992.06;;;10.65;nan
9277;BME280;4676;42.678;23.244;2023-04-27T08:31:06;93983.66;;;10.65;nan
9277;BME280;4676;42.678;23.244;2023-04-27T08:33:34;93986.53;;;10.96;nan
9277;BME280;4676;42.678;23.244;2023-04-27T08:36:01;93982.38;;;10.75;nan
9277;BME280;4676;42.678;23.244;2023-04-27T08:38:28;93993.59;;;10.49;nan
9277;BME280;4676;42.678;23.244;2023-04-27T08:40:54;93993.84;;;10.23;nan
9277;BME280;4676;42.678;23.244;2023-04-27T08:43:21;93989.09;;;10.14;nan
9277;BME280;4676;42.678;23.244;2023-04-27T08:45:48;93994.97;;;10.16;nan
9277;BME280;4676;42.678;23.244;2023-04-27T08:48:16;93983.97;;;10.37;nan
9277;BME280;4676;42.678;23.244;2023-04-27T08:50:49;93992.00;;;10.46;nan
9277;BME280;4676;42.678;23.244;2023-04-27T08:53:16;93981.84;;;10.67;nan
9277;BME280;4676;42.678;23.244;2023-04-27T08:55:43;93991.69;;;11.13;nan
9277;BME280;4676;42.678;23.244;2023-04-27T08:58:10;93995.22;;;11.09;nan
9277;BME280;4676;42.678;23.244;2023-04-27T09:00:37;93992.66;;;11.11;nan
9277;BME280;4676;42.678;23.244;2023-04-27T09:03:05;93979.47;;;11.02;nan
9277;BME280;4676;42.678;23.244;2023-04-27T09:05:32;93984.03;;;10.94;nan
9277;BME280;4676;42.678;23.244;2023-04-27T09:08:02;93957.47;;;10.64;nan
9277;BME280;4676;42.678;23.244;2023-04-27T09:10:42;93979.88;;;11.12;nan
9277;BME280;4676;42.678;23.244;2023-04-27T09:13:10;93980.50;;;11.17;nan
9277;BME280;4676;42.678;23.244;2023-04-27T09:15:43;93983.31;;;11.30;nan
9277;BME280;4676;42.678;23.244;2023-04-27T09:18:14;93980.09;;;11.26;nan
9277;BME280;4676;42.678;23.244;2023-04-27T09:20:43;93974.81;;;11.31;nan
9277;BME280;4676;42.678;23.244;2023-04-27T09:23:22;93980.34;;;11.58;nan
9277;BME280;4676;42.678;23.244;2023-04-27T09:25:50;93973.81;;;11.53;nan
9277;BME280;4676;42.678;23.244;2023-04-27T09:28:17;93980.44;;;11.56;nan
9277;BME280;4676;42.678;23.244;2023-04-27T09:30:50;93983.69;;;11.22;nan
9277;BME280;4676;42.678;23.244;2023-04-27T09:33:21;93955.47;;;10.91;nan
9277;BME280;4676;42.678;23.244;2023-04-27T09:35:49;93955.09;;;11.19;nan
9277;BME280;4676;42.678;23.244;2023-04-27T09:38:18;93962.53;;;11.40;nan
9277;BME280;4676;42.678;23.244;2023-04-27T09:40:45;93967.28;;;11.48;nan
9277;BME280;4676;42.678;23.244;2023-04-27T09:43:12;93953.22;;;11.41;nan
9277;BME280;4676;42.678;23.244;2023-04-27T09:45:40;93958.13;;;11.63;nan
9277;BME280;4676;42.678;23.244;2023-04-27T09:48:07;93955.75;;;11.78;nan
9277;BME280;4676;42.678;23.244;2023-04-27T09:50:34;93943.06;;;11.78;nan
9277;BME280;4676;42.678;23.244;2023-04-27T09:53:02;93945.91;;;11.89;nan
9277;BME280;4676;42.678;23.244;2023-04-27T09:55:36;93950.75;;;11.94;nan
9277;BME280;4676;42.678;23.244;2023-04-27T09:58:18;93946.19;;;11.83;nan
9277;BME280;4676;42.678;23.244;2023-04-27T10:00:57;93959.44;;;12.07;nan
9277;BME280;4676;42.678;23.244;2023-04-27T10:03:29;93957.28;;;11.99;nan
9277;BME280;4676;42.678;23.244;2023-04-27T10:06:41;93949.53;;;12.37;nan
9277;BME280;4676;42.678;23.244;2023-04-27T10:09:11;93947.03;;;12.70;nan
9277;BME280;4676;42.678;23.244;2023-04-27T10:11:41;93948.91;;;12.66;nan
9277;BME280;4676;42.678;23.244;2023-04-27T10:14:14;93952.38;;;12.31;nan
9277;BME280;4676;42.678;23.244;2023-04-27T10:16:46;93949.53;;;12.37;nan
9277;BME280;4676;42.678;23.244;2023-04-27T10:19:15;93942.25;;;12.46;nan
9277;BME280;4676;42.678;23.244;2023-04-27T10:21:55;93952.53;;;12.28;nan
9277;BME280;4676;42.678;23.244;2023-04-27T10:24:33;93948.53;;;11.69;nan
9277;BME280;4676;42.678;23.244;2023-04-27T10:27:03;93949.91;;;11.58;nan
9277;BME280;4676;42.678;23.244;2023-04-27T10:29:35;93941.69;;;11.71;nan
9277;BME280;4676;42.678;23.244;2023-04-27T10:32:05;93933.13;;;11.91;nan
9277;BME280;4676;42.678;23.244;2023-04-27T10:34:33;93942.25;;;11.95;nan
9277;BME280;4676;42.678;23.244;2023-04-27T10:37:04;93937.84;;;11.81;nan
9277;BME280;4676;42.678;23.244;2023-04-27T10:39:34;93937.97;;;11.78;nan
9277;BME280;4676;42.678;23.244;2023-04-27T10:42:03;93943.66;;;12.00;nan
9277;BME280;4676;42.678;23.244;2023-04-27T10:44:32;93938.38;;;12.39;nan
9277;BME280;4676;42.678;23.244;2023-04-27T10:47:00;93945.22;;;13.05;nan
9277;BME280;4676;42.678;23.244;2023-04-27T10:49:28;93939.47;;;13.01;nan
9277;BME280;4676;42.678;23.244;2023-04-27T10:51:57;93935.22;;;13.01;nan
9277;BME280;4676;42.678;23.244;2023-04-27T10:54:26;93957.03;;;12.73;nan
9277;BME280;4676;42.678;23.244;2023-04-27T10:56:53;93942.22;;;12.14;nan
9277;BME280;4676;42.678;23.244;2023-04-27T10:59:22;93935.47;;;12.30;nan
9277;BME280;4676;42.678;23.244;2023-04-27T11:01:48;93945.47;;;12.16;nan
9277;BME280;4676;42.678;23.244;2023-04-27T11:04:16;93949.22;;;12.26;nan
9277;BME280;4676;42.678;23.244;2023-04-27T11:06:44;93922.84;;;12.11;nan
9277;BME280;4676;42.678;23.244;2023-04-27T11:09:12;93935.63;;;12.27;nan
9277;BME280;4676;42.678;23.244;2023-04-27T11:11:43;93934.34;;;12.18;nan
9277;BME280;4676;42.678;23.244;2023-04-27T11:14:13;93939.94;;;12.42;nan
9277;BME280;4676;42.678;23.244;2023-04-27T11:16:46;93933.44;;;12.36;nan
9277;BME280;4676;42.678;23.244;2023-04-27T11:19:13;93910.00;;;12.64;nan
9277;BME280;4676;42.678;23.244;2023-04-27T11:21:40;93943.50;;;12.72;nan
9277;BME280;4676;42.678;23.244;2023-04-27T11:24:07;93938.94;;;12.62;nan
9277;BME280;4676;42.678;23.244;2023-04-27T11:26:34;93938.66;;;12.50;nan
9277;BME280;4676;42.678;23.244;2023-04-27T11:29:03;93941.81;;;12.56;nan
9277;BME280;4676;42.678;23.244;2023-04-27T11:31:40;93950.53;;;12.67;nan
9277;BME280;4676;42.678;23.244;2023-04-27T11:34:16;93948.34;;;12.60;nan
9277;BME280;4676;42.678;23.244;2023-04-27T11:36:43;93946.94;;;12.71;nan
9277;BME280;4676;42.678;23.244;2023-04-27T11:39:15;93948.38;;;13.10;nan
9277;BME280;4676;42.678;23.244;2023-04-27T11:41:43;93954.88;;;13.15;nan
9277;BME280;4676;42.678;23.244;2023-04-27T11:44:11;93948.16;;;12.97;nan
9277;BME280;4676;42.678;23.244;2023-04-27T11:46:38;93935.94;;;12.71;nan
9277;BME280;4676;42.678;23.244;2023-04-27T11:49:06;93948.06;;;12.66;nan
9277;BME280;4676;42.678;23.244;2023-04-27T11:51:35;93946.47;;;12.80;nan
9277;BME280;4676;42.678;23.244;2023-04-27T11:54:02;93949.25;;;13.09;nan
9277;BME280;4676;42.678;23.244;2023-04-27T11:56:34;93964.09;;;13.49;nan
9277;BME280;4676;42.678;23.244;2023-04-27T11:59:01;93941.19;;;13.00;nan
9277;BME280;4676;42.678;23.244;2023-04-27T12:01:30;93940.19;;;13.36;nan
9277;BME280;4676;42.678;23.244;2023-04-27T12:03:57;93953.53;;;13.08;nan
9277;BME280;4676;42.678;23.244;2023-04-27T12:06:24;93957.19;;;13.02;nan
9277;BME280;4676;42.678;23.244;2023-04-27T12:08:52;93954.47;;;13.23;nan
9277;BME280;4676;42.678;23.244;2023-04-27T12:11:19;93954.31;;;12.93;nan
9277;BME280;4676;42.678;23.244;2023-04-27T12:13:46;93958.28;;;12.81;nan
9277;BME280;4676;42.678;23.244;2023-04-27T12:16:13;93956.00;;;12.92;nan
9277;BME280;4676;42.678;23.244;2023-04-27T12:18:40;93959.44;;;13.09;nan
9277;BME280;4676;42.678;23.244;2023-04-27T12:21:07;93947.41;;;12.95;nan
9277;BME280;4676;42.678;23.244;2023-04-27T12:23:34;93961.84;;;13.12;nan
9277;BME280;4676;42.678;23.244;2023-04-27T12:26:03;93965.41;;;13.08;nan
9277;BME280;4676;42.678;23.244;2023-04-27T12:28:30;93960.28;;;12.92;nan
9277;BME280;4676;42.678;23.244;2023-04-27T12:30:56;93949.25;;;13.09;nan
9277;BME280;4676;42.678;23.244;2023-04-27T12:33:23;93956.47;;;13.00;nan
9277;BME280;4676;42.678;23.244;2023-04-27T12:35:50;93962.25;;;12.87;nan
9277;BME280;4676;42.678;23.244;2023-04-27T12:38:17;93921.19;;;12.77;nan
9277;BME280;4676;42.678;23.244;2023-04-27T12:40:44;93952.47;;;12.79;nan
9277;BME280;4676;42.678;23.244;2023-04-27T12:43:12;93952.66;;;12.59;nan
9277;BME280;4676;42.678;23.244;2023-04-27T12:45:39;93959.75;;;12.70;nan
9277;BME280;4676;42.678;23.244;2023-04-27T12:48:06;93966.91;;;12.79;nan
9277;BME280;4676;42.678;23.244;2023-04-27T12:50:34;93960.25;;;12.76;nan
9277;BME280;4676;42.678;23.244;2023-04-27T12:53:02;93966.97;;;12.77;nan
9277;BME280;4676;42.678;23.244;2023-04-27T12:55:29;93961.53;;;12.68;nan
9277;BME280;4676;42.678;23.244;2023-04-27T12:57:55;93961.38;;;12.53;nan
9277;BME280;4676;42.678;23.244;2023-04-27T13:00:24;93968.56;;;12.28;nan
9277;BME280;4676;42.678;23.244;2023-04-27T13:02:51;93961.72;;;12.30;nan
9277;BME280;4676;42.678;23.244;2023-04-27T13:05:18;93959.31;;;12.27;nan
9277;BME280;4676;42.678;23.244;2023-04-27T13:07:45;93948.69;;;12.53;nan
9277;BME280;4676;42.678;23.244;2023-04-27T13:10:12;93960.41;;;12.56;nan
9277;BME280;4676;42.678;23.244;2023-04-27T13:12:39;93940.50;;;12.31;nan
9277;BME280;4676;42.678;23.244;2023-04-27T13:15:07;93956.00;;;12.42;nan
9277;BME280;4676;42.678;23.244;2023-04-27T13:17:35;93954.97;;;12.46;nan
9277;BME280;4676;42.678;23.244;2023-04-27T13:20:02;93957.81;;;12.40;nan
9277;BME280;4676;42.678;23.244;2023-04-27T13:22:29;93959.47;;;12.41;nan
9277;BME280;4676;42.678;23.244;2023-04-27T13:24:55;93954.97;;;12.46;nan
9277;BME280;4676;42.678;23.244;2023-04-27T13:27:22;93954.25;;;12.77;nan
9277;BME280;4676;42.678;23.244;2023-04-27T13:29:49;93956.72;;;12.79;nan
9277;BME280;4676;42.678;23.244;2023-04-27T13:32:16;93956.00;;;12.92;nan
9277;BME280;4676;42.678;23.244;2023-04-27T13:34:44;93957.78;;;13.08;nan
9277;BME280;4676;42.678;23.244;2023-04-27T13:37:11;93953.16;;;12.98;nan
9277;BME280;4676;42.678;23.244;2023-04-27T13:39:38;93946.50;;;12.96;nan
9277;BME280;4676;42.678;23.244;2023-04-27T13:42:04;93954.63;;;12.87;nan
9277;BME280;4676;42.678;23.244;2023-04-27T13:44:31;93955.84;;;12.80;nan
9277;BME280;4676;42.678;23.244;2023-04-27T13:46:58;93958.78;;;12.55;nan
9277;BME280;4676;42.678;23.244;2023-04-27T13:49:24;93963.13;;;12.36;nan
9277;BME280;4676;42.678;23.244;2023-04-27T13:51:53;93961.34;;;12.38;nan
9277;BME280;4676;42.678;23.244;2023-04-27T13:54:19;93969.69;;;12.40;nan
9277;BME280;4676;42.678;23.244;2023-04-27T13:56:47;93972.75;;;12.46;nan
9277;BME280;4676;42.678;23.244;2023-04-27T13:59:13;93962.53;;;12.48;nan
9277;BME280;4676;42.678;23.244;2023-04-27T14:01:41;93960.66;;;12.34;nan
9277;BME280;4676;42.678;23.244;2023-04-27T14:04:08;93973.88;;;12.41;nan
9277;BME280;4676;42.678;23.244;2023-04-27T14:06:35;93977.78;;;12.31;nan
9277;BME280;4676;42.678;23.244;2023-04-27T14:09:03;93987.31;;;12.09;nan
9277;BME280;4676;42.678;23.244;2023-04-27T14:11:30;93976.63;;;12.02;nan
9277;BME280;4676;42.678;23.244;2023-04-27T14:13:57;93979.22;;;12.00;nan
9277;BME280;4676;42.678;23.244;2023-04-27T14:16:23;93980.66;;;12.06;nan
9277;BME280;4676;42.678;23.244;2023-04-27T14:18:50;93990.22;;;12.01;nan
9277;BME280;4676;42.678;23.244;2023-04-27T14:21:17;93987.97;;;11.95;nan
9277;BME280;4676;42.678;23.244;2023-04-27T14:23:44;93988.19;;;11.90;nan
9277;BME280;4676;42.678;23.244;2023-04-27T14:26:12;93960.44;;;11.86;nan
9277;BME280;4676;42.678;23.244;2023-04-27T14:28:39;93995.25;;;12.20;nan
9277;BME280;4676;42.678;23.244;2023-04-27T14:31:06;94001.53;;;12.47;nan
9277;BME280;4676;42.678;23.244;2023-04-27T14:33:32;93996.31;;;12.50;nan
9277;BME280;4676;42.678;23.244;2023-04-27T14:35:59;93992.78;;;12.35;nan
9277;BME280;4676;42.678;23.244;2023-04-27T14:38:26;94008.34;;;12.46;nan
9277;BME280;4676;42.678;23.244;2023-04-27T14:40:52;94004.69;;;12.52;nan
9277;BME280;4676;42.678;23.244;2023-04-27T14:43:21;94007.13;;;12.36;nan
9277;BME280;4676;42.678;23.244;2023-04-27T14:45:48;94007.75;;;12.24;nan
9277;BME280;4676;42.678;23.244;2023-04-27T14:48:15;94019.09;;;12.17;nan
9277;BME280;4676;42.678;23.244;2023-04-27T14:50:42;94018.91;;;12.03;nan
9277;BME280;4676;42.678;23.244;2023-04-27T14:53:08;94023.72;;;11.90;nan
9277;BME280;4676;42.678;23.244;2023-04-27T14:55:35;94027.47;;;12.00;nan
9277;BME280;4676;42.678;23.244;2023-04-27T14:58:02;94019.97;;;12.16;nan
9277;BME280;4676;42.678;23.244;2023-04-27T15:00:30;94024.25;;;11.97;nan
9277;BME280;4676;42.678;23.244;2023-04-27T15:02:56;94033.00;;;11.73;nan
9277;BME280;4676;42.678;23.244;2023-04-27T15:05:24;94037.59;;;11.46;nan
9277;BME280;4676;42.678;23.244;2023-04-27T15:07:50;94026.94;;;11.38;nan
9277;BME280;4676;42.678;23.244;2023-04-27T15:10:17;94038.25;;;11.31;nan
9277;BME280;4676;42.678;23.244;2023-04-27T15:12:44;94040.19;;;11.26;nan
9277;BME280;4676;42.678;23.244;2023-04-27T15:15:11;94030.72;;;11.29;nan
9277;BME280;4676;42.678;23.244;2023-04-27T15:17:39;94032.13;;;11.16;nan
9277;BME280;4676;42.678;23.244;2023-04-27T15:20:07;94035.56;;;11.15;nan
9277;BME280;4676;42.678;23.244;2023-04-27T15:22:35;94043.78;;;11.20;nan
9277;BME280;4676;42.678;23.244;2023-04-27T15:25:02;94042.34;;;11.15;nan
9277;BME280;4676;42.678;23.244;2023-04-27T15:27:28;94037.47;;;11.10;nan
9277;BME280;4676;42.678;23.244;2023-04-27T15:29:57;94029.72;;;11.13;nan
9277;BME280;4676;42.678;23.244;2023-04-27T15:32:23;94045.34;;;11.23;nan
9277;BME280;4676;42.678;23.244;2023-04-27T15:34:55;94047.00;;;11.24;nan
9277;BME280;4676;42.678;23.244;2023-04-27T15:37:22;94044.47;;;11.24;nan
9277;BME280;4676;42.678;23.244;2023-04-27T15:39:49;94054.13;;;11.16;nan
9277;BME280;4676;42.678;23.244;2023-04-27T15:42:16;94057.28;;;11.21;nan
9277;BME280;4676;42.678;23.244;2023-04-27T15:44:42;94058.69;;;11.28;nan
9277;BME280;4676;42.678;23.244;2023-04-27T15:47:09;94038.84;;;11.17;nan
9277;BME280;4676;42.678;23.244;2023-04-27T15:49:36;94063.38;;;11.17;nan
9277;BME280;4676;42.678;23.244;2023-04-27T15:52:04;94056.78;;;11.13;nan
9277;BME280;4676;42.678;23.244;2023-04-27T15:54:31;94054.78;;;11.00;nan
9277;BME280;4676;42.678;23.244;2023-04-27T15:56:58;94056.88;;;10.91;nan
9277;BME280;4676;42.678;23.244;2023-04-27T15:59:28;94052.63;;;10.91;nan
9277;BME280;4676;42.678;23.244;2023-04-27T16:01:55;94067.28;;;10.85;nan
9277;BME280;4676;42.678;23.244;2023-04-27T16:04:22;94072.34;;;10.85;nan
9277;BME280;4676;42.678;23.244;2023-04-27T16:06:48;94068.72;;;10.70;nan
9277;BME280;4676;42.678;23.244;2023-04-27T16:09:16;94056.44;;;10.61;nan
9277;BME280;4676;42.678;23.244;2023-04-27T16:11:44;94063.03;;;10.65;nan
9277;BME280;4676;42.678;23.244;2023-04-27T16:14:11;94075.19;;;10.57;nan
9277;BME280;4676;42.678;23.244;2023-04-27T16:16:37;94073.66;;;10.53;nan
9277;BME280;4676;42.678;23.244;2023-04-27T16:19:05;94075.56;;;10.48;nan
9277;BME280;4676;42.678;23.244;2023-04-27T16:21:33;94084.91;;;10.46;nan
9277;BME280;4676;42.678;23.244;2023-04-27T16:24:00;94078.66;;;10.34;nan
9277;BME280;4676;42.678;23.244;2023-04-27T16:26:28;94089.28;;;10.42;nan
9277;BME280;4676;42.678;23.244;2023-04-27T16:28:55;94086.69;;;10.44;nan
9277;BME280;4676;42.678;23.244;2023-04-27T16:31:22;94095.59;;;10.54;nan
9277;BME280;4676;42.678;23.244;2023-04-27T16:33:49;94101.69;;;10.48;nan
9277;BME280;4676;42.678;23.244;2023-04-27T16:36:16;94107.84;;;10.43;nan
9277;BME280;4676;42.678;23.244;2023-04-27T16:38:43;94104.06;;;10.31;nan
9277;BME280;4676;42.678;23.244;2023-04-27T16:41:10;94091.59;;;10.27;nan
9277;BME280;4676;42.678;23.244;2023-04-27T16:43:38;94109.09;;;10.33;nan
9277;BME280;4676;42.678;23.244;2023-04-27T16:46:05;94109.47;;;10.24;nan
9277;BME280;4676;42.678;23.244;2023-04-27T16:48:33;94116.34;;;10.20;nan
9277;BME280;4676;42.678;23.244;2023-04-27T16:50:59;94118.97;;;10.17;nan
9277;BME280;4676;42.678;23.244;2023-04-27T16:53:26;94121.47;;;10.19;nan
9277;BME280;4676;42.678;23.244;2023-04-27T16:55:53;94120.00;;;10.12;nan
9277;BME280;4676;42.678;23.244;2023-04-27T16:58:20;94111.34;;;9.95;nan
9277;BME280;4676;42.678;23.244;2023-04-27T17:00:48;94124.88;;;9.94;nan
9277;BME280;4676;42.678;23.244;2023-04-27T17:03:15;94119.09;;;9.91;nan
9277;BME280;4676;42.678;23.244;2023-04-27T17:05:41;94128.06;;;9.99;nan
9277;BME280;4676;42.678;23.244;2023-04-27T17:08:08;94130.00;;;9.93;nan
9277;BME280;4676;42.678;23.244;2023-04-27T17:10:35;94128.03;;;9.78;nan
9277;BME280;4676;42.678;23.244;2023-04-27T17:13:02;94127.97;;;9.79;nan
9277;BME280;4676;42.678;23.244;2023-04-27T17:15:29;94125.78;;;9.70;nan
9277;BME280;4676;42.678;23.244;2023-04-27T17:18:01;94138.59;;;9.66;nan
9277;BME280;4676;42.678;23.244;2023-04-27T17:20:28;94142.72;;;9.68;nan
9277;BME280;4676;42.678;23.244;2023-04-27T17:22:55;94135.31;;;9.64;nan
9277;BME280;4676;42.678;23.244;2023-04-27T17:25:22;94142.06;;;9.63;nan
9277;BME280;4676;42.678;23.244;2023-04-27T17:27:49;94152.50;;;9.54;nan
9277;BME280;4676;42.678;23.244;2023-04-27T17:30:15;94139.69;;;9.59;nan
9277;BME280;4676;42.678;23.244;2023-04-27T17:32:42;94142.97;;;9.61;nan
9277;BME280;4676;42.678;23.244;2023-04-27T17:35:10;94151.41;;;9.61;nan